createdAt,value
2019-02-28T00:02:04.659Z,23.45
2019-02-28T00:04:32.815Z,23.45
2019-02-28T00:06:58.037Z,23.45
2019-02-28T00:09:25.745Z,23.43
2019-02-28T00:11:51.475Z,23.45
2019-02-28T00:14:18.190Z,23.42
2019-02-28T00:16:44.905Z,23.43
2019-02-28T00:19:11.568Z,23.43
2019-02-28T00:21:40.555Z,23.44
2019-02-28T00:24:04.883Z,23.44
2019-02-28T00:26:31.592Z,23.40
2019-02-28T00:29:00.391Z,23.41
2019-02-28T00:31:24.976Z,23.40
2019-02-28T00:33:51.649Z,23.40
2019-02-28T00:36:19.244Z,23.41
2019-02-28T00:38:45.050Z,23.40
2019-02-28T00:41:11.719Z,23.39
2019-02-28T00:43:38.381Z,23.40
2019-02-28T00:46:07.218Z,23.39
2019-02-28T00:48:31.737Z,23.40
2019-02-28T00:50:59.163Z,23.39
2019-02-28T00:53:25.053Z,23.42
2019-02-28T00:55:51.733Z,23.39
2019-02-28T00:58:18.484Z,23.38
2019-02-28T01:00:45.191Z,23.36
2019-02-28T01:03:11.864Z,23.36
2019-02-28T01:05:38.512Z,23.38
2019-02-28T01:08:05.186Z,23.39
2019-02-28T01:10:31.832Z,23.37
2019-02-28T01:12:58.524Z,23.35
2019-02-28T01:15:25.190Z,23.34
2019-02-28T01:17:51.866Z,23.35
2019-02-28T01:20:18.666Z,23.32
2019-02-28T01:22:45.427Z,23.35
2019-02-28T01:25:12.085Z,23.33
2019-02-28T01:27:38.809Z,23.33
2019-02-28T01:30:06.616Z,23.31
2019-02-28T01:32:32.232Z,23.34
2019-02-28T01:34:58.827Z,23.30
2019-02-28T01:37:25.562Z,23.30
2019-02-28T01:39:52.217Z,23.31
2019-02-28T01:42:20.140Z,23.30
2019-02-28T01:44:45.556Z,23.28
2019-02-28T01:47:12.256Z,23.30
2019-02-28T01:49:38.916Z,23.28
2019-02-28T01:52:09.783Z,23.29
2019-02-28T01:54:32.234Z,23.26
2019-02-28T01:56:58.917Z,23.27
2019-02-28T01:59:25.582Z,23.26
2019-02-28T02:01:52.247Z,23.30
2019-02-28T02:04:18.936Z,23.27
2019-02-28T02:06:45.598Z,23.27
2019-02-28T02:09:12.265Z,23.26
2019-02-28T02:11:38.942Z,23.26
2019-02-28T02:14:07.490Z,23.24
2019-02-28T02:16:32.267Z,23.24
2019-02-28T02:18:58.963Z,23.21
2019-02-28T02:21:25.623Z,23.19
2019-02-28T02:23:53.111Z,23.19
2019-02-28T02:26:18.964Z,23.05
2019-02-28T02:28:45.676Z,22.76
2019-02-28T02:31:15.154Z,22.58
2019-02-28T02:33:41.817Z,22.61
2019-02-28T02:36:08.502Z,22.80
2019-02-28T02:38:40.187Z,22.89
2019-02-28T02:41:01.830Z,22.95
2019-02-28T02:43:28.617Z,23.00
2019-02-28T02:45:55.268Z,23.02
2019-02-28T02:48:21.986Z,23.05
2019-02-28T02:50:48.714Z,23.10
2019-02-28T02:53:15.371Z,23.11
2019-02-28T02:55:42.057Z,23.15
2019-02-28T02:58:08.706Z,23.20
2019-02-28T03:00:35.420Z,23.21
2019-02-28T03:03:06.025Z,23.25
2019-02-28T03:05:35.353Z,23.25
2019-02-28T03:07:59.493Z,23.23
2019-02-28T03:10:22.166Z,23.21
2019-02-28T03:12:48.812Z,23.25
2019-02-28T03:15:15.519Z,23.25
2019-02-28T03:17:46.617Z,23.23
2019-02-28T03:20:08.943Z,23.24
2019-02-28T03:22:35.536Z,23.20
2019-02-28T03:25:02.274Z,23.21
2019-02-28T03:27:28.913Z,23.21
2019-02-28T03:29:55.572Z,23.24
2019-02-28T03:32:22.280Z,23.27
2019-02-28T03:34:56.222Z,23.29
2019-02-28T03:37:15.624Z,23.26
2019-02-28T03:39:42.269Z,23.26
2019-02-28T03:42:08.931Z,23.25
2019-02-28T03:44:35.576Z,23.27
2019-02-28T03:47:02.258Z,23.29
2019-02-28T03:49:28.963Z,23.29
2019-02-28T03:51:55.606Z,23.31
2019-02-28T03:54:22.275Z,23.30
2019-02-28T03:56:52.825Z,23.31
2019-02-28T03:59:18.867Z,23.33
2019-02-28T04:01:45.456Z,23.29
2019-02-28T04:04:12.216Z,23.31
2019-02-28T04:06:39.562Z,23.30
2019-02-28T04:09:07.283Z,23.30
2019-02-28T04:11:31.138Z,23.30
2019-02-28T04:13:56.014Z,23.30
2019-02-28T04:16:22.272Z,23.32
2019-02-28T04:18:48.980Z,23.31
2019-02-28T04:21:15.697Z,23.32
2019-02-28T04:23:42.408Z,23.31
2019-02-28T04:26:09.086Z,23.34
2019-02-28T04:28:35.755Z,23.33
2019-02-28T04:31:02.532Z,23.35
2019-02-28T04:33:29.207Z,23.33
2019-02-28T04:35:56.892Z,23.35
2019-02-28T04:38:22.687Z,23.33
2019-02-28T04:40:49.487Z,23.34
2019-02-28T04:43:16.188Z,23.35
2019-02-28T04:45:42.848Z,23.35
2019-02-28T04:48:13.635Z,23.39
2019-02-28T04:50:36.209Z,23.61
2019-02-28T04:53:02.905Z,23.50
2019-02-28T04:55:30.596Z,23.46
2019-02-28T04:57:56.256Z,23.42
2019-02-28T05:00:22.945Z,23.40
2019-02-28T05:02:53.728Z,23.33
2019-02-28T05:05:16.259Z,23.37
2019-02-28T05:07:42.946Z,23.33
2019-02-28T05:10:09.630Z,23.34
2019-02-28T05:12:40.025Z,23.35
2019-02-28T05:15:02.956Z,23.43
2019-02-28T05:17:29.673Z,23.38
2019-02-28T05:19:56.331Z,23.49
2019-02-28T05:22:24.431Z,23.45
2019-02-28T05:24:49.851Z,23.41
2019-02-28T05:27:16.561Z,23.44
2019-02-28T05:29:44.062Z,23.47
2019-02-28T05:32:09.905Z,23.62
2019-02-28T05:34:36.575Z,23.52
2019-02-28T05:37:03.363Z,23.61
2019-02-28T05:39:30.971Z,23.92
2019-02-28T05:41:56.821Z,24.04
2019-02-28T05:44:23.500Z,23.92
2019-02-28T05:46:50.184Z,24.30
2019-02-28T05:49:16.975Z,24.22
2019-02-28T05:51:43.650Z,24.26
2019-02-28T05:54:10.301Z,24.56
2019-02-28T05:56:36.982Z,24.91
2019-02-28T05:59:03.683Z,25.03
2019-02-28T06:01:30.335Z,25.11
2019-02-28T06:03:57.139Z,24.53
2019-02-28T06:06:23.879Z,24.55
2019-02-28T06:08:50.537Z,24.52
2019-02-28T06:11:17.252Z,24.70
2019-02-28T06:13:44.519Z,24.64
2019-02-28T06:16:12.359Z,24.72
2019-02-28T06:18:39.297Z,24.69
2019-02-28T06:21:04.681Z,24.80
2019-02-28T06:23:31.348Z,24.84
2019-02-28T06:25:59.371Z,24.91
2019-02-28T06:28:27.651Z,24.93
2019-02-28T06:30:51.479Z,24.91
2019-02-28T06:33:18.194Z,24.87
2019-02-28T06:35:44.916Z,24.99
2019-02-28T06:38:11.589Z,24.96
2019-02-28T06:40:38.279Z,25.00
2019-02-28T06:43:05.004Z,24.94
2019-02-28T06:45:36.710Z,25.10
2019-02-28T06:47:59.511Z,25.09
2019-02-28T06:50:25.096Z,25.12
2019-02-28T06:52:51.799Z,25.18
2019-02-28T06:55:18.511Z,25.20
2019-02-28T06:57:45.297Z,25.23
2019-02-28T07:00:13.435Z,25.24
2019-02-28T07:02:38.642Z,25.14
2019-02-28T07:05:05.314Z,25.18
2019-02-28T07:07:32.073Z,25.25
2019-02-28T07:09:58.756Z,25.28
2019-02-28T07:12:29.220Z,25.27
2019-02-28T07:14:52.105Z,25.32
2019-02-28T07:17:18.790Z,25.17
2019-02-28T07:19:45.597Z,25.19
2019-02-28T07:22:12.228Z,25.26
2019-02-28T07:24:38.888Z,25.24
2019-02-28T07:27:05.558Z,25.22
2019-02-28T07:29:32.231Z,25.29
2019-02-28T07:32:01.217Z,25.31
2019-02-28T07:34:25.990Z,25.28
2019-02-28T07:36:52.648Z,25.42
2019-02-28T07:39:19.464Z,25.37
2019-02-28T07:41:46.165Z,25.43
2019-02-28T07:44:12.946Z,25.35
2019-02-28T07:46:42.315Z,25.41
2019-02-28T07:49:06.266Z,25.44
2019-02-28T07:51:33.091Z,25.48
2019-02-28T07:54:01.554Z,25.21
2019-02-28T07:56:26.651Z,25.10
2019-02-28T07:58:53.314Z,24.88
2019-02-28T08:01:20.024Z,24.83
2019-02-28T08:03:46.718Z,24.73
2019-02-28T08:06:13.468Z,24.73
2019-02-28T08:08:40.139Z,24.98
2019-02-28T08:11:06.887Z,25.16
2019-02-28T08:13:34.657Z,25.34
2019-02-28T08:16:00.410Z,25.34
2019-02-28T08:18:26.992Z,25.34
2019-02-28T08:20:53.650Z,25.37
2019-02-28T08:23:20.320Z,25.47
2019-02-28T08:25:47.026Z,25.38
2019-02-28T08:28:13.693Z,25.39
2019-02-28T08:30:40.539Z,25.24
2019-02-28T08:33:07.122Z,25.10
2019-02-28T08:35:34.705Z,24.89
2019-02-28T08:38:00.504Z,24.90
2019-02-28T08:40:28.183Z,25.12
2019-02-28T08:42:54.938Z,25.15
2019-02-28T08:45:22.043Z,25.26
2019-02-28T08:47:48.758Z,25.37
2019-02-28T08:50:18.925Z,25.59
2019-02-28T08:52:42.312Z,25.53
2019-02-28T08:55:09.277Z,25.53
2019-02-28T08:57:35.570Z,25.60
2019-02-28T09:00:02.226Z,25.58
2019-02-28T09:02:30.350Z,25.69
2019-02-28T09:04:55.606Z,25.60
2019-02-28T09:07:22.466Z,25.67
2019-02-28T09:09:49.126Z,25.87
2019-02-28T09:12:15.822Z,25.70
2019-02-28T09:14:42.531Z,25.70
2019-02-28T09:17:09.190Z,25.74
2019-02-28T09:19:36.868Z,25.70
2019-02-28T09:22:02.609Z,26.00
2019-02-28T09:24:29.320Z,25.97
2019-02-28T09:26:56.007Z,25.95
2019-02-28T09:29:22.698Z,25.79
2019-02-28T09:31:49.400Z,25.78
2019-02-28T09:34:16.063Z,25.79
2019-02-28T09:36:42.745Z,25.82
2019-02-28T09:39:09.405Z,25.67
2019-02-28T09:41:36.513Z,25.93
2019-02-28T09:44:07.007Z,25.72
2019-02-28T09:46:32.126Z,25.74
2019-02-28T09:48:59.985Z,25.72
2019-02-28T09:51:25.743Z,25.75
2019-02-28T09:53:52.538Z,25.80
2019-02-28T09:56:19.541Z,25.77
2019-02-28T09:58:45.935Z,25.79
2019-02-28T10:01:12.626Z,25.82
2019-02-28T10:03:39.340Z,25.72
2019-02-28T10:06:06.038Z,25.62
2019-02-28T10:08:33.528Z,25.53
2019-02-28T10:11:02.761Z,25.33
2019-02-28T10:13:31.047Z,25.42
2019-02-28T10:15:56.377Z,25.25
2019-02-28T10:18:23.057Z,25.10
2019-02-28T10:20:49.757Z,25.12
2019-02-28T10:23:18.348Z,25.26
2019-02-28T10:25:43.709Z,25.48
2019-02-28T10:28:09.788Z,25.51
2019-02-28T10:30:36.486Z,25.57
2019-02-28T10:33:03.160Z,25.56
2019-02-28T10:35:29.814Z,25.59
2019-02-28T10:37:58.541Z,25.15
2019-02-28T10:40:23.293Z,24.68
2019-02-28T10:42:50.020Z,24.68
2019-02-28T10:45:16.743Z,24.59
2019-02-28T10:47:43.435Z,24.71
2019-02-28T10:50:10.086Z,24.78
2019-02-28T10:52:36.779Z,24.73
2019-02-28T10:55:03.580Z,24.69
2019-02-28T10:57:30.243Z,24.84
2019-02-28T10:59:58.184Z,24.60
2019-02-28T11:02:23.607Z,24.69
2019-02-28T11:04:52.601Z,24.70
2019-02-28T11:07:19.265Z,24.73
2019-02-28T11:09:46.160Z,24.75
2019-02-28T11:12:12.887Z,24.68
2019-02-28T11:14:39.551Z,24.41
2019-02-28T11:17:11.360Z,24.62
2019-02-28T11:19:32.924Z,24.60
2019-02-28T11:22:01.604Z,24.79
2019-02-28T11:24:27.177Z,25.05
2019-02-28T11:26:52.977Z,24.99
2019-02-28T11:29:19.791Z,25.15
2019-02-28T11:31:46.553Z,25.25
2019-02-28T11:34:15.068Z,24.97
2019-02-28T11:36:39.930Z,24.88
2019-02-28T11:39:06.642Z,24.94
2019-02-28T11:41:33.377Z,24.70
2019-02-28T11:44:00.063Z,24.77
2019-02-28T11:46:26.754Z,25.12
2019-02-28T11:48:53.973Z,25.26
2019-02-28T11:51:20.134Z,25.24
2019-02-28T11:53:46.894Z,25.06
2019-02-28T11:56:13.549Z,25.05
2019-02-28T11:58:40.262Z,25.13
2019-02-28T12:01:09.988Z,25.30
2019-02-28T12:03:35.500Z,25.25
2019-02-28T12:06:00.377Z,25.32
2019-02-28T12:08:27.105Z,25.17
2019-02-28T12:10:53.759Z,25.02
2019-02-28T12:13:20.654Z,25.03
2019-02-28T12:15:47.312Z,24.88
2019-02-28T12:18:13.876Z,24.87
2019-02-28T12:20:40.583Z,25.01
2019-02-28T12:23:07.280Z,24.95
2019-02-28T12:25:39.643Z,25.38
2019-02-28T12:28:06.566Z,25.37
2019-02-28T12:30:31.200Z,25.42
2019-02-28T12:32:58.106Z,25.37
2019-02-28T12:35:24.838Z,25.48
2019-02-28T12:37:53.984Z,25.26
2019-02-28T12:40:18.229Z,25.19
2019-02-28T12:42:44.900Z,25.32
2019-02-28T12:45:11.588Z,25.40
2019-02-28T12:47:38.697Z,25.48
2019-02-28T12:50:05.168Z,25.43
2019-02-28T12:52:31.841Z,25.63
2019-02-28T12:54:59.026Z,25.60
2019-02-28T12:57:25.711Z,25.37
2019-02-28T12:59:52.446Z,25.58
2019-02-28T13:02:19.147Z,25.85
2019-02-28T13:04:45.800Z,25.53
2019-02-28T13:07:12.477Z,25.55
2019-02-28T13:09:39.165Z,25.31
2019-02-28T13:12:08.112Z,25.25
2019-02-28T13:14:32.569Z,25.33
2019-02-28T13:16:59.213Z,25.30
2019-02-28T13:19:25.959Z,25.31
2019-02-28T13:21:52.621Z,25.40
2019-02-28T13:24:19.330Z,25.34
2019-02-28T13:26:46.093Z,25.23
2019-02-28T13:29:12.751Z,25.19
2019-02-28T13:31:39.406Z,25.15
2019-02-28T13:34:06.107Z,25.30
2019-02-28T13:36:32.801Z,25.25
2019-02-28T13:38:59.503Z,25.33
2019-02-28T13:41:27.483Z,25.29
2019-02-28T13:43:54.866Z,25.22
2019-02-28T13:46:19.555Z,25.38
2019-02-28T13:48:46.326Z,25.55
2019-02-28T13:51:13.014Z,25.45
2019-02-28T13:53:39.720Z,25.32
2019-02-28T13:56:06.346Z,25.20
2019-02-28T13:58:33.071Z,25.17
2019-02-28T14:00:59.817Z,25.27
2019-02-28T14:03:26.496Z,25.49
2019-02-28T14:05:53.188Z,25.38
2019-02-28T14:08:19.855Z,25.31
2019-02-28T14:10:46.512Z,25.33
2019-02-28T14:13:13.171Z,25.16
2019-02-28T14:15:39.948Z,25.08
2019-02-28T14:18:07.534Z,25.10
2019-02-28T14:20:33.410Z,24.93
2019-02-28T14:23:00.105Z,25.32
2019-02-28T14:25:26.771Z,25.32
2019-02-28T14:27:53.546Z,25.08
2019-02-28T14:30:22.803Z,25.32
2019-02-28T14:32:47.022Z,25.31
2019-02-28T14:35:13.762Z,25.32
2019-02-28T14:37:40.414Z,25.00
2019-02-28T14:40:07.256Z,24.89
2019-02-28T14:42:33.954Z,24.87
2019-02-28T14:45:03.950Z,24.85
2019-02-28T14:47:28.444Z,24.98
2019-02-28T14:49:54.130Z,25.18
2019-02-28T14:52:20.751Z,25.20
2019-02-28T14:54:47.400Z,25.12
2019-02-28T14:57:16.614Z,25.21
2019-02-28T14:59:40.810Z,24.99
2019-02-28T15:02:07.503Z,25.05
2019-02-28T15:04:34.222Z,24.85
2019-02-28T15:07:03.143Z,24.66
2019-02-28T15:09:28.143Z,24.76
2019-02-28T15:11:54.191Z,24.74
2019-02-28T15:14:20.840Z,24.78
2019-02-28T15:16:47.534Z,24.77
2019-02-28T15:19:14.339Z,24.78
2019-02-28T15:21:42.666Z,24.88
2019-02-28T15:24:08.534Z,24.81
2019-02-28T15:26:34.391Z,24.73
2019-02-28T15:29:01.099Z,24.64
2019-02-28T15:31:27.775Z,24.55
2019-02-28T15:33:54.409Z,24.51
2019-02-28T15:36:24.182Z,24.60
2019-02-28T15:38:47.878Z,24.57
2019-02-28T15:41:14.610Z,24.57
2019-02-28T15:43:41.308Z,24.48
2019-02-28T15:46:08.633Z,24.47
2019-02-28T15:48:35.288Z,24.61
2019-02-28T15:51:03.417Z,24.56
2019-02-28T15:53:28.140Z,24.42
2019-02-28T15:55:54.796Z,24.35
2019-02-28T15:58:21.532Z,24.42
2019-02-28T16:00:48.247Z,24.35
2019-02-28T16:03:16.840Z,24.36
2019-02-28T16:05:44.001Z,24.33
2019-02-28T16:08:10.292Z,24.32
2019-02-28T16:10:34.853Z,24.34
2019-02-28T16:13:01.547Z,24.19
2019-02-28T16:15:28.198Z,24.16
2019-02-28T16:17:54.845Z,24.18
2019-02-28T16:20:21.575Z,24.19
2019-02-28T16:22:51.932Z,24.17
2019-02-28T16:25:15.750Z,24.10
2019-02-28T16:27:41.490Z,24.09
2019-02-28T16:30:08.155Z,24.05
2019-02-28T16:32:34.796Z,23.97
2019-02-28T16:35:01.436Z,24.07
2019-02-28T16:37:28.207Z,24.01
2019-02-28T16:39:54.854Z,23.95
2019-02-28T16:42:21.512Z,24.20
2019-02-28T16:44:48.217Z,24.27
2019-02-28T16:47:14.860Z,24.08
2019-02-28T16:49:44.479Z,23.91
2019-02-28T16:52:08.287Z,23.84
2019-02-28T16:54:34.934Z,23.87
2019-02-28T16:57:01.583Z,23.91
2019-02-28T16:59:28.441Z,23.88
2019-02-28T17:01:55.816Z,23.92
2019-02-28T17:04:21.598Z,23.89
2019-02-28T17:06:48.237Z,23.84
2019-02-28T17:09:14.951Z,23.76
2019-02-28T17:11:42.920Z,23.76
2019-02-28T17:14:10.322Z,23.66
2019-02-28T17:16:37.202Z,23.64
2019-02-28T17:19:01.584Z,23.69
2019-02-28T17:21:28.283Z,23.76
2019-02-28T17:23:54.934Z,23.78
2019-02-28T17:26:21.666Z,23.81
2019-02-28T17:28:49.739Z,23.74
2019-02-28T17:31:15.714Z,23.76
2019-02-28T17:33:43.335Z,23.73
2019-02-28T17:36:11.432Z,23.59
2019-02-28T17:38:37.319Z,23.63
2019-02-28T17:41:02.662Z,23.71
2019-02-28T17:43:28.539Z,23.67
2019-02-28T17:45:55.191Z,23.62
2019-02-28T17:48:21.851Z,23.72
2019-02-28T17:50:48.592Z,23.72
2019-02-28T17:53:15.241Z,23.75
2019-02-28T17:55:41.893Z,23.79
2019-02-28T17:58:08.540Z,23.79
2019-02-28T18:00:35.244Z,23.80
2019-02-28T18:03:01.945Z,23.78
2019-02-28T18:05:30.311Z,23.79
2019-02-28T18:07:57.784Z,23.80
2019-02-28T18:10:25.124Z,23.94
2019-02-28T18:12:51.486Z,23.86
2019-02-28T18:15:18.121Z,23.82
2019-02-28T18:17:44.760Z,23.78
2019-02-28T18:20:11.401Z,23.72
2019-02-28T18:22:39.593Z,23.79
2019-02-28T18:25:04.862Z,23.78
2019-02-28T18:27:31.496Z,23.76
2019-02-28T18:29:58.151Z,23.76
2019-02-28T18:32:24.789Z,23.73
2019-02-28T18:34:52.695Z,23.71
2019-02-28T18:37:20.802Z,23.74
2019-02-28T18:39:48.304Z,23.74
2019-02-28T18:42:11.529Z,23.73
2019-02-28T18:44:41.051Z,23.73
2019-02-28T18:47:04.923Z,23.72
2019-02-28T18:49:31.568Z,23.73
2019-02-28T18:51:59.625Z,23.70
2019-02-28T18:54:24.897Z,23.69
2019-02-28T18:56:51.595Z,23.71
2019-02-28T18:59:18.251Z,23.66
2019-02-28T19:01:44.902Z,23.61
2019-02-28T19:04:11.613Z,23.63
2019-02-28T19:06:38.244Z,23.63
2019-02-28T19:09:04.903Z,23.62
2019-02-28T19:11:31.593Z,23.60
2019-02-28T19:13:58.315Z,23.58
2019-02-28T19:16:24.969Z,23.44
2019-02-28T19:18:51.681Z,23.24
2019-02-28T19:21:18.478Z,23.08
2019-02-28T19:23:45.117Z,23.03
2019-02-28T19:26:11.757Z,23.05
2019-02-28T19:28:38.420Z,23.11
2019-02-28T19:31:05.060Z,23.11
2019-02-28T19:33:31.757Z,23.10
2019-02-28T19:35:58.392Z,23.13
2019-02-28T19:38:25.045Z,23.09
2019-02-28T19:40:51.729Z,23.12
2019-02-28T19:43:18.368Z,23.16
2019-02-28T19:45:45.140Z,23.14
2019-02-28T19:48:11.849Z,23.19
2019-02-28T19:50:38.534Z,23.19
2019-02-28T19:53:05.170Z,23.15
2019-02-28T19:55:31.837Z,23.20
2019-02-28T19:57:58.482Z,23.11
2019-02-28T20:00:25.146Z,23.13
2019-02-28T20:02:51.884Z,23.11
2019-02-28T20:05:18.591Z,23.12
2019-02-28T20:07:45.242Z,23.07
2019-02-28T20:10:11.898Z,23.05
2019-02-28T20:12:38.565Z,23.02
2019-02-28T20:15:05.215Z,23.03
2019-02-28T20:17:31.854Z,23.00
2019-02-28T20:19:58.569Z,23.01
2019-02-28T20:22:25.222Z,22.97
2019-02-28T20:24:51.946Z,22.97
2019-02-28T20:27:18.598Z,22.96
2019-02-28T20:29:54.741Z,22.96
2019-02-28T20:32:11.929Z,22.94
2019-02-28T20:34:38.570Z,22.92
2019-02-28T20:37:05.211Z,22.93
2019-02-28T20:39:31.909Z,22.89
2019-02-28T20:41:58.624Z,22.85
2019-02-28T20:44:25.257Z,22.83
2019-02-28T20:46:51.942Z,22.80
2019-02-28T20:49:18.586Z,22.80
2019-02-28T20:51:54.619Z,22.80
2019-02-28T20:54:11.927Z,22.77
2019-02-28T20:56:38.579Z,22.76
2019-02-28T20:59:05.216Z,22.74
2019-02-28T21:01:31.858Z,22.73
2019-02-28T21:03:58.490Z,22.71
2019-02-28T21:06:25.188Z,22.69
2019-02-28T21:08:51.830Z,22.70
2019-02-28T21:11:18.479Z,22.67
2019-02-28T21:13:45.141Z,22.65
2019-02-28T21:16:11.794Z,22.68
2019-02-28T21:18:38.446Z,22.68
2019-02-28T21:21:05.100Z,22.65
2019-02-28T21:23:31.831Z,22.64
2019-02-28T21:25:58.533Z,22.63
2019-02-28T21:28:25.255Z,22.63
2019-02-28T21:30:51.957Z,22.62
2019-02-28T21:33:18.627Z,22.64
2019-02-28T21:35:45.282Z,22.61
2019-02-28T21:38:11.989Z,22.59
2019-02-28T21:40:38.641Z,22.56
2019-02-28T21:43:05.293Z,22.55
2019-02-28T21:45:33.596Z,22.56
2019-02-28T21:47:58.675Z,22.53
2019-02-28T21:50:25.339Z,22.53
2019-02-28T21:52:51.995Z,22.50
2019-02-28T21:55:18.657Z,22.52
2019-02-28T21:57:45.327Z,22.53
2019-02-28T22:00:12.141Z,22.50
2019-02-28T22:02:38.804Z,22.48
2019-02-28T22:05:05.460Z,22.49
2019-02-28T22:07:32.155Z,22.47
2019-02-28T22:09:58.791Z,22.42
2019-02-28T22:12:25.503Z,22.43
2019-02-28T22:14:52.174Z,22.41
2019-02-28T22:17:18.902Z,22.42
2019-02-28T22:19:45.592Z,22.40
2019-02-28T22:22:12.271Z,22.36
2019-02-28T22:24:38.945Z,22.39
2019-02-28T22:27:05.608Z,22.33
2019-02-28T22:29:32.307Z,22.30
2019-02-28T22:31:58.984Z,22.29
2019-02-28T22:34:25.790Z,22.29
2019-02-28T22:36:52.530Z,22.28
2019-02-28T22:39:19.203Z,22.29
2019-02-28T22:41:45.905Z,22.27
2019-02-28T22:44:12.596Z,22.24
2019-02-28T22:46:40.668Z,22.25
2019-02-28T22:49:06.001Z,22.20
2019-02-28T22:51:32.670Z,22.21
2019-02-28T22:53:59.366Z,22.20
2019-02-28T22:56:26.144Z,22.21
2019-02-28T22:58:52.830Z,22.21
2019-02-28T23:01:19.506Z,22.20
2019-02-28T23:03:46.277Z,22.18
2019-02-28T23:06:12.937Z,22.15
2019-02-28T23:08:39.628Z,22.13
2019-02-28T23:11:06.375Z,22.12
2019-02-28T23:13:33.022Z,22.12
2019-02-28T23:15:59.803Z,22.11
2019-02-28T23:18:26.457Z,22.09
2019-02-28T23:20:53.183Z,22.09
2019-02-28T23:23:19.856Z,22.07
2019-02-28T23:25:46.579Z,22.09
2019-02-28T23:28:13.272Z,22.07
2019-02-28T23:30:39.954Z,22.04
2019-02-28T23:33:06.694Z,21.99
2019-02-28T23:35:33.472Z,21.98
2019-02-28T23:38:00.161Z,21.98
2019-02-28T23:40:26.816Z,21.99
2019-02-28T23:42:53.521Z,21.96
2019-02-28T23:45:20.175Z,22.00
2019-02-28T23:47:46.851Z,21.97
2019-02-28T23:50:13.596Z,21.96
2019-02-28T23:52:40.339Z,21.97
2019-02-28T23:55:07.085Z,21.92
2019-02-28T23:57:33.928Z,21.92
